Terminal Aerodrome Forecast
Issued by NWS

Home | Current Version | Previous Version | Text Only | Print | Product List | Glossary On
Versions: 1 2 3 4 5 6 7 8 9 10 11 12 13 14 15 16 17 18
086
FTUS43 KGRB 242329
TAFAUW
TAF
KAUW 242329Z 2500/2524 01006KT P6SM VCSH SCT008 OVC015
      TEMPO 2500/2504 5SM -RA BR BKN008
     FM250400 05008KT P6SM OVC008
     FM250900 06008KT P6SM OVC012
     FM251500 07011G18KT P6SM OVC015
     FM252000 08012G18KT P6SM SCT008 OVC015 PROB30 2522/2524 4SM -RA
      BR BKN008=

USA.gov is the U.S. government's official web portal to all federal, state and local government web resources and services.